createdAt,value
2019-04-27T00:00:20.742Z,1002.72
2019-04-27T00:01:20.693Z,1002.77
2019-04-27T00:02:24.835Z,1002.77
2019-04-27T00:03:20.617Z,1002.81
2019-04-27T00:04:20.541Z,1002.76
2019-04-27T00:05:20.484Z,1002.76
2019-04-27T00:06:20.434Z,1002.77
2019-04-27T00:07:21.178Z,1002.75
2019-04-27T00:08:20.364Z,1002.74
2019-04-27T00:09:20.272Z,1002.74
2019-04-27T00:10:20.377Z,1002.74
2019-04-27T00:11:20.173Z,1002.74
2019-04-27T00:12:22.629Z,1002.72
2019-04-27T00:13:20.067Z,1002.72
2019-04-27T00:14:20.040Z,1002.71
2019-04-27T00:15:19.964Z,1002.70
2019-04-27T00:16:19.909Z,1002.72
2019-04-27T00:17:40.495Z,1002.69
2019-04-27T00:18:19.811Z,1002.71
2019-04-27T00:19:19.779Z,1002.66
2019-04-27T00:20:21.644Z,1002.68
2019-04-27T00:21:19.647Z,1002.70
2019-04-27T00:22:19.597Z,1002.75
2019-04-27T00:23:19.546Z,1002.75
2019-04-27T00:24:19.517Z,1002.73
2019-04-27T00:25:19.437Z,1002.74
2019-04-27T00:26:19.387Z,1002.78
2019-04-27T00:27:19.340Z,1002.74
2019-04-27T00:28:19.280Z,1002.76
2019-04-27T00:29:19.257Z,1002.74
2019-04-27T00:30:19.178Z,1002.75
2019-04-27T00:31:19.124Z,1002.78
2019-04-27T00:32:19.075Z,1002.79
2019-04-27T00:33:19.025Z,1002.82
2019-04-27T00:34:18.989Z,1002.77
2019-04-27T00:35:18.917Z,1002.74
2019-04-27T00:36:18.862Z,1002.70
2019-04-27T00:37:18.811Z,1002.66
2019-04-27T00:38:18.764Z,1002.64
2019-04-27T00:39:18.737Z,1002.62
2019-04-27T00:40:18.663Z,1002.62
2019-04-27T00:41:19.214Z,1002.62
2019-04-27T00:42:18.562Z,1002.58
2019-04-27T00:43:18.505Z,1002.56
2019-04-27T00:44:18.481Z,1002.55
2019-04-27T00:45:18.393Z,1002.56
2019-04-27T00:46:18.347Z,1002.48
2019-04-27T00:47:18.289Z,1002.53
2019-04-27T00:48:18.234Z,1002.50
2019-04-27T00:49:20.250Z,1002.51
2019-04-27T00:50:18.136Z,1002.51
2019-04-27T00:51:18.081Z,1002.48
2019-04-27T00:52:18.029Z,1002.45
2019-04-27T00:53:17.978Z,1002.45
2019-04-27T00:54:17.948Z,1002.48
2019-04-27T00:55:17.892Z,1002.46
2019-04-27T00:56:17.816Z,1002.42
2019-04-27T00:57:17.769Z,1002.45
2019-04-27T00:58:17.717Z,1002.42
2019-04-27T00:59:17.682Z,1002.41
2019-04-27T01:00:17.611Z,1002.36
2019-04-27T01:01:17.559Z,1002.40
2019-04-27T01:02:17.510Z,1002.35
2019-04-27T01:03:17.454Z,1002.31
2019-04-27T01:04:17.429Z,1002.31
2019-04-27T01:05:17.346Z,1002.33
2019-04-27T01:06:17.301Z,1002.29
2019-04-27T01:07:17.241Z,1002.25
2019-04-27T01:08:17.192Z,1002.28
2019-04-27T01:09:17.161Z,1002.22
2019-04-27T01:10:17.086Z,1002.20
2019-04-27T01:11:17.034Z,1002.18
2019-04-27T01:12:16.984Z,1002.18
2019-04-27T01:13:16.935Z,1002.15
2019-04-27T01:14:16.903Z,1002.13
2019-04-27T01:15:16.831Z,1002.09
2019-04-27T01:16:20.111Z,1002.06
2019-04-27T01:17:16.718Z,1002.05
2019-04-27T01:18:16.667Z,1002.06
2019-04-27T01:19:16.631Z,1002.08
2019-04-27T01:20:16.565Z,1002.06
2019-04-27T01:21:16.511Z,1002.07
2019-04-27T01:22:16.459Z,1002.02
2019-04-27T01:23:16.402Z,1001.93
2019-04-27T01:24:16.377Z,1001.96
2019-04-27T01:25:16.306Z,1001.93
2019-04-27T01:26:16.249Z,1001.93
2019-04-27T01:27:16.198Z,1001.89
2019-04-27T01:28:16.138Z,1001.90
2019-04-27T01:29:16.125Z,1001.89
2019-04-27T01:30:16.035Z,1001.89
2019-04-27T01:31:15.987Z,1001.89
2019-04-27T01:32:15.933Z,1001.87
2019-04-27T01:33:15.878Z,1001.85
2019-04-27T01:34:15.825Z,1001.88
2019-04-27T01:35:15.802Z,1001.86
2019-04-27T01:36:15.719Z,1001.86
2019-04-27T01:37:15.669Z,1001.90
2019-04-27T01:38:15.613Z,1001.88
2019-04-27T01:39:15.570Z,1001.91
2019-04-27T01:40:15.533Z,1001.90
2019-04-27T01:41:15.454Z,1001.90
2019-04-27T01:42:15.404Z,1001.83
2019-04-27T01:43:15.355Z,1001.86
2019-04-27T01:44:15.296Z,1001.86
2019-04-27T01:45:15.269Z,1001.90
2019-04-27T01:46:15.194Z,1001.90
2019-04-27T01:47:15.144Z,1001.86
2019-04-27T01:48:22.919Z,1001.85
2019-04-27T01:49:15.036Z,1001.86
2019-04-27T01:50:15.008Z,1001.93
2019-04-27T01:51:14.937Z,1001.86
2019-04-27T01:52:14.875Z,1001.86
2019-04-27T01:53:14.822Z,1001.86
2019-04-27T01:54:14.772Z,1001.85
2019-04-27T01:55:14.740Z,1001.82
2019-04-27T01:56:14.668Z,1001.86
2019-04-27T01:57:14.615Z,1001.87
2019-04-27T01:58:14.557Z,1001.86
2019-04-27T01:59:14.514Z,1001.85
2019-04-27T02:00:14.479Z,1001.83
2019-04-27T02:01:14.404Z,1001.76
2019-04-27T02:02:14.355Z,1001.73
2019-04-27T02:03:14.301Z,1001.76
2019-04-27T02:04:14.246Z,1001.71
2019-04-27T02:05:14.218Z,1001.73
2019-04-27T02:06:14.139Z,1001.71
2019-04-27T02:07:14.087Z,1001.72
2019-04-27T02:08:14.037Z,1001.74
2019-04-27T02:09:13.985Z,1001.80
2019-04-27T02:10:13.952Z,1001.84
2019-04-27T02:11:13.875Z,1001.83
2019-04-27T02:12:13.832Z,1001.81
2019-04-27T02:13:13.775Z,1001.88
2019-04-27T02:14:13.723Z,1001.83
2019-04-27T02:15:13.694Z,1001.89
2019-04-27T02:16:13.610Z,1001.86
2019-04-27T02:17:13.575Z,1001.86
2019-04-27T02:18:13.512Z,1001.84
2019-04-27T02:19:13.464Z,1001.86
2019-04-27T02:20:13.425Z,1001.86
2019-04-27T02:21:13.361Z,1001.85
2019-04-27T02:22:13.297Z,1001.85
2019-04-27T02:23:13.249Z,1001.82
2019-04-27T02:24:13.196Z,1001.80
2019-04-27T02:25:13.167Z,1001.77
2019-04-27T02:26:13.091Z,1001.79
2019-04-27T02:27:13.041Z,1001.73
2019-04-27T02:28:12.988Z,1001.76
2019-04-27T02:29:12.929Z,1001.72
2019-04-27T02:30:12.913Z,1001.74
2019-04-27T02:31:12.835Z,1001.70
2019-04-27T02:32:12.780Z,1001.71
2019-04-27T02:33:12.957Z,1001.71
2019-04-27T02:34:12.677Z,1001.73
2019-04-27T02:35:12.646Z,1001.71
2019-04-27T02:36:15.190Z,1001.74
2019-04-27T02:37:12.517Z,1001.74
2019-04-27T02:38:12.475Z,1001.71
2019-04-27T02:39:12.412Z,1001.71
2019-04-27T02:40:12.387Z,1001.70
2019-04-27T02:41:12.330Z,1001.68
2019-04-27T02:42:12.255Z,1001.65
2019-04-27T02:43:12.204Z,1001.64
2019-04-27T02:44:12.148Z,1001.61
2019-04-27T02:45:12.122Z,1001.64
2019-04-27T02:46:12.052Z,1001.64
2019-04-27T02:47:11.991Z,1001.67
2019-04-27T02:48:11.938Z,1001.63
2019-04-27T02:49:11.890Z,1001.66
2019-04-27T02:50:11.863Z,1001.64
2019-04-27T02:51:11.784Z,1001.63
2019-04-27T02:52:11.731Z,1001.60
2019-04-27T02:53:11.680Z,1001.64
2019-04-27T02:54:12.656Z,1001.69
2019-04-27T02:55:11.575Z,1001.66
2019-04-27T02:56:11.547Z,1001.67
2019-04-27T02:57:11.470Z,1001.64
2019-04-27T02:58:12.969Z,1001.65
2019-04-27T02:59:11.968Z,1001.65
2019-04-27T03:00:11.315Z,1001.64
2019-04-27T03:01:11.304Z,1001.64
2019-04-27T03:02:11.208Z,1001.63
2019-04-27T03:03:11.156Z,1001.63
2019-04-27T03:04:11.097Z,1001.58
2019-04-27T03:05:13.167Z,1001.54
2019-04-27T03:06:11.031Z,1001.53
2019-04-27T03:07:11.579Z,1001.51
2019-04-27T03:08:10.889Z,1001.55
2019-04-27T03:09:10.837Z,1001.52
2019-04-27T03:10:10.784Z,1001.54
2019-04-27T03:11:10.755Z,1001.49
2019-04-27T03:12:10.681Z,1001.45
2019-04-27T03:13:11.204Z,1001.45
2019-04-27T03:14:28.024Z,1001.42
2019-04-27T03:15:10.522Z,1001.45
2019-04-27T03:16:11.354Z,1001.43
2019-04-27T03:17:10.421Z,1001.38
2019-04-27T03:18:10.364Z,1001.41
2019-04-27T03:19:17.711Z,1001.42
2019-04-27T03:20:10.595Z,1001.43
2019-04-27T03:21:13.133Z,1001.44
2019-04-27T03:22:10.150Z,1001.37
2019-04-27T03:23:10.105Z,1001.40
2019-04-27T03:24:10.043Z,1001.35
2019-04-27T03:25:11.675Z,1001.35
2019-04-27T03:26:10.672Z,1001.34
2019-04-27T03:27:09.889Z,1001.34
2019-04-27T03:28:10.709Z,1001.30
2019-04-27T03:29:10.033Z,1001.29
2019-04-27T03:30:12.200Z,1001.33
2019-04-27T03:31:13.647Z,1001.33
2019-04-27T03:32:12.763Z,1001.32
2019-04-27T03:33:11.861Z,1001.33
2019-04-27T03:34:15.830Z,1001.30
2019-04-27T03:35:12.875Z,1001.32
2019-04-27T03:36:12.791Z,1001.31
2019-04-27T03:37:10.356Z,1001.31
2019-04-27T03:38:10.430Z,1001.29
2019-04-27T03:39:10.180Z,1001.26
2019-04-27T03:40:10.307Z,1001.29
2019-04-27T03:41:09.511Z,1001.33
2019-04-27T03:42:10.425Z,1001.32
2019-04-27T03:43:09.362Z,1001.31
2019-04-27T03:44:09.450Z,1001.27
2019-04-27T03:45:10.786Z,1001.29
2019-04-27T03:46:10.299Z,1001.30
2019-04-27T03:47:12.272Z,1001.28
2019-04-27T03:48:10.345Z,1001.25
2019-04-27T03:49:09.769Z,1001.23
2019-04-27T03:50:10.263Z,1001.23
2019-04-27T03:51:09.957Z,1001.26
2019-04-27T03:52:09.639Z,1001.27
2019-04-27T03:53:10.346Z,1001.24
2019-04-27T03:54:10.450Z,1001.21
2019-04-27T03:55:10.345Z,1001.21
2019-04-27T03:56:10.167Z,1001.21
2019-04-27T03:57:09.970Z,1001.12
2019-04-27T03:58:10.003Z,1001.16
2019-04-27T03:59:10.172Z,1001.11
2019-04-27T04:00:10.089Z,1001.15
2019-04-27T04:01:10.286Z,1001.15
2019-04-27T04:02:10.142Z,1001.17
2019-04-27T04:03:10.483Z,1001.21
2019-04-27T04:04:10.407Z,1001.23
2019-04-27T04:05:09.838Z,1001.17
2019-04-27T04:06:10.494Z,1001.18
2019-04-27T04:07:09.590Z,1001.21
2019-04-27T04:08:10.464Z,1001.19
2019-04-27T04:09:09.866Z,1001.19
2019-04-27T04:10:07.613Z,1001.16
2019-04-27T04:11:10.175Z,1001.18
2019-04-27T04:12:09.570Z,1001.17
2019-04-27T04:13:07.465Z,1001.16
2019-04-27T04:14:07.403Z,1001.13
2019-04-27T04:15:09.782Z,1001.13
2019-04-27T04:16:08.006Z,1001.12
2019-04-27T04:17:12.372Z,1001.09
2019-04-27T04:18:09.547Z,1001.07
2019-04-27T04:19:09.517Z,1001.06
2019-04-27T04:20:09.864Z,1001.08
2019-04-27T04:21:09.461Z,1001.06
2019-04-27T04:22:07.008Z,1001.04
2019-04-27T04:23:06.927Z,1001.06
2019-04-27T04:24:09.022Z,1001.04
2019-04-27T04:25:06.817Z,1000.99
2019-04-27T04:26:06.766Z,1000.98
2019-04-27T04:27:06.735Z,1000.97
2019-04-27T04:28:08.882Z,1000.93
2019-04-27T04:29:06.606Z,1000.94
2019-04-27T04:30:06.549Z,1000.93
2019-04-27T04:31:10.022Z,1000.93
2019-04-27T04:32:06.471Z,1000.97
2019-04-27T04:33:06.388Z,1000.94
2019-04-27T04:34:06.340Z,1000.94
2019-04-27T04:35:06.284Z,1000.90
2019-04-27T04:36:06.233Z,1000.93
2019-04-27T04:37:06.198Z,1000.96
2019-04-27T04:38:06.130Z,1000.93
2019-04-27T04:39:06.071Z,1000.95
2019-04-27T04:40:06.016Z,1000.93
2019-04-27T04:41:05.967Z,1000.94
2019-04-27T04:42:05.940Z,1000.95
2019-04-27T04:43:05.863Z,1000.94
2019-04-27T04:44:05.810Z,1000.95
2019-04-27T04:45:05.749Z,1000.94
2019-04-27T04:46:09.785Z,1000.96
2019-04-27T04:47:05.676Z,1000.93
2019-04-27T04:48:05.592Z,1000.96
2019-04-27T04:49:05.547Z,1000.89
2019-04-27T04:50:11.356Z,1000.93
2019-04-27T04:51:05.438Z,1000.92
2019-04-27T04:52:05.409Z,1000.91
2019-04-27T04:53:05.348Z,1000.87
2019-04-27T04:54:05.276Z,1000.89
2019-04-27T04:55:05.221Z,1000.89
2019-04-27T04:56:05.165Z,1000.88
2019-04-27T04:57:05.141Z,1000.88
2019-04-27T04:58:05.061Z,1000.84
2019-04-27T04:59:05.019Z,1000.82
2019-04-27T05:00:04.952Z,1000.86
2019-04-27T05:01:04.917Z,1000.82
2019-04-27T05:02:04.881Z,1000.82
2019-04-27T05:03:04.797Z,1000.84
2019-04-27T05:04:04.742Z,1000.86
2019-04-27T05:05:04.686Z,1000.85
2019-04-27T05:06:04.644Z,1000.85
2019-04-27T05:07:04.607Z,1000.85
2019-04-27T05:08:04.527Z,1000.86
2019-04-27T05:09:04.476Z,1000.87
2019-04-27T05:10:04.424Z,1000.87
2019-04-27T05:11:04.369Z,1000.87
2019-04-27T05:12:04.338Z,1000.90
2019-04-27T05:13:04.266Z,1000.87
2019-04-27T05:14:04.210Z,1000.87
2019-04-27T05:15:04.158Z,1000.88
2019-04-27T05:16:04.115Z,1000.86
2019-04-27T05:17:04.078Z,1000.84
2019-04-27T05:18:04.002Z,1000.85
2019-04-27T05:19:03.948Z,1000.84
2019-04-27T05:20:03.891Z,1000.81
2019-04-27T05:21:03.851Z,1000.88
2019-04-27T05:22:03.812Z,1000.81
2019-04-27T05:23:03.736Z,1000.82
2019-04-27T05:24:03.680Z,1000.81
2019-04-27T05:25:03.626Z,1000.84
2019-04-27T05:26:03.583Z,1000.89
2019-04-27T05:27:03.550Z,1000.87
2019-04-27T05:28:03.475Z,1000.88
2019-04-27T05:29:03.422Z,1000.89
2019-04-27T05:30:03.369Z,1000.88
2019-04-27T05:31:03.317Z,1000.89
2019-04-27T05:32:03.299Z,1000.89
2019-04-27T05:33:03.215Z,1000.92
2019-04-27T05:34:03.165Z,1000.92
2019-04-27T05:35:03.103Z,1000.90
2019-04-27T05:36:03.050Z,1000.90
2019-04-27T05:37:03.001Z,1000.92
2019-04-27T05:38:07.407Z,1000.87
2019-04-27T05:39:02.902Z,1000.88
2019-04-27T05:40:02.849Z,1000.88
2019-04-27T05:41:02.793Z,1000.88
2019-04-27T05:42:02.736Z,1000.82
2019-04-27T05:43:02.722Z,1000.83
2019-04-27T05:44:03.179Z,1000.81
2019-04-27T05:45:02.589Z,1000.84
2019-04-27T05:46:02.537Z,1000.81
2019-04-27T05:47:05.337Z,1000.81
2019-04-27T05:48:02.455Z,1000.82
2019-04-27T05:49:06.286Z,1000.81
2019-04-27T05:50:02.325Z,1000.82
2019-04-27T05:51:02.286Z,1000.81
2019-04-27T05:52:02.228Z,1000.77
2019-04-27T05:53:02.199Z,1000.77
2019-04-27T05:54:02.127Z,1000.73
2019-04-27T05:55:02.077Z,1000.70
2019-04-27T05:56:02.021Z,1000.66
2019-04-27T05:57:01.979Z,1000.68
2019-04-27T05:58:01.948Z,1000.67
2019-04-27T05:59:01.870Z,1000.67
2019-04-27T06:00:02.615Z,1000.69
2019-04-27T06:01:01.769Z,1000.68
2019-04-27T06:02:01.720Z,1000.65
2019-04-27T06:03:01.694Z,1000.71
2019-04-27T06:04:01.617Z,1000.66
2019-04-27T06:05:01.566Z,1000.70
2019-04-27T06:06:01.719Z,1000.66
2019-04-27T06:07:01.470Z,1000.68
2019-04-27T06:08:01.441Z,1000.66
2019-04-27T06:09:01.368Z,1000.68
2019-04-27T06:10:01.316Z,1000.70
2019-04-27T06:11:01.270Z,1000.68
2019-04-27T06:12:01.220Z,1000.68
2019-04-27T06:13:01.191Z,1000.64
2019-04-27T06:14:01.117Z,1000.64
2019-04-27T06:15:01.069Z,1000.62
2019-04-27T06:16:01.019Z,1000.64
2019-04-27T06:17:00.967Z,1000.65
2019-04-27T06:18:00.943Z,1000.64
2019-04-27T06:19:00.868Z,1000.60
2019-04-27T06:20:00.812Z,1000.60
2019-04-27T06:21:00.768Z,1000.63
2019-04-27T06:22:01.356Z,1000.61
2019-04-27T06:23:00.869Z,1000.60
2019-04-27T06:24:00.620Z,1000.65
2019-04-27T06:25:00.616Z,1000.62
2019-04-27T06:26:01.842Z,1000.61
2019-04-27T06:27:00.471Z,1000.62
2019-04-27T06:28:00.452Z,1000.63
2019-04-27T06:29:00.373Z,1000.64
2019-04-27T06:30:00.317Z,1000.65
2019-04-27T06:31:00.271Z,1000.65
2019-04-27T06:32:00.215Z,1000.67
2019-04-27T06:33:00.191Z,1000.64
2019-04-27T06:34:00.126Z,1000.67
2019-04-27T06:35:00.065Z,1000.64
2019-04-27T06:36:01.826Z,1000.66
2019-04-27T06:37:00.110Z,1000.63
2019-04-27T06:37:59.923Z,1000.58
2019-04-27T06:38:59.873Z,1000.57
2019-04-27T06:40:00.007Z,1000.55
2019-04-27T06:41:01.480Z,1000.54
2019-04-27T06:42:01.291Z,1000.53
2019-04-27T06:42:59.702Z,1000.50
2019-04-27T06:43:59.623Z,1000.50
2019-04-27T06:45:00.055Z,1000.49
2019-04-27T06:45:59.524Z,1000.50
2019-04-27T06:46:59.475Z,1000.46
2019-04-27T06:47:59.633Z,1000.46
2019-04-27T06:48:59.489Z,1000.46
2019-04-27T06:49:59.328Z,1000.40
2019-04-27T06:51:03.606Z,1000.45
2019-04-27T06:51:59.222Z,1000.41
2019-04-27T06:52:59.212Z,1000.40
2019-04-27T06:53:59.546Z,1000.41
2019-04-27T06:55:00.632Z,1000.40
2019-04-27T06:55:59.033Z,1000.34
2019-04-27T06:56:59.364Z,1000.30
2019-04-27T06:57:59.013Z,1000.29
2019-04-27T06:58:59.682Z,1000.29
2019-04-27T06:59:59.202Z,1000.33
2019-04-27T07:00:59.549Z,1000.28
2019-04-27T07:01:59.292Z,1000.26
2019-04-27T07:02:59.682Z,1000.28
2019-04-27T07:03:59.770Z,1000.28
2019-04-27T07:04:59.260Z,1000.29
2019-04-27T07:05:58.962Z,1000.26
2019-04-27T07:06:59.493Z,1000.27
2019-04-27T07:07:59.101Z,1000.28
2019-04-27T07:08:59.730Z,1000.29
2019-04-27T07:09:59.087Z,1000.31
2019-04-27T07:10:58.805Z,1000.36
2019-04-27T07:11:59.279Z,1000.33
2019-04-27T07:12:59.744Z,1000.28
2019-04-27T07:13:59.421Z,1000.30
2019-04-27T07:14:59.257Z,1000.25
2019-04-27T07:15:59.587Z,1000.30
2019-04-27T07:16:59.103Z,1000.28
2019-04-27T07:17:58.606Z,1000.26
2019-04-27T07:18:59.338Z,1000.30
2019-04-27T07:19:59.492Z,1000.24
2019-04-27T07:20:58.706Z,1000.27
2019-04-27T07:21:59.033Z,1000.28
2019-04-27T07:22:59.393Z,1000.24
2019-04-27T07:23:59.314Z,1000.25
2019-04-27T07:24:59.065Z,1000.22
2019-04-27T07:25:57.552Z,1000.24
2019-04-27T07:26:59.391Z,1000.21
2019-04-27T07:27:59.114Z,1000.24
2019-04-27T07:28:57.429Z,1000.21
2019-04-27T07:30:00.809Z,1000.23
2019-04-27T07:30:58.664Z,1000.22
2019-04-27T07:31:57.263Z,1000.20
2019-04-27T07:32:58.715Z,1000.20
2019-04-27T07:33:57.195Z,1000.19
2019-04-27T07:34:58.593Z,1000.21
2019-04-27T07:35:58.943Z,1000.19
2019-04-27T07:36:57.016Z,1000.19
2019-04-27T07:37:58.721Z,1000.19
2019-04-27T07:38:56.940Z,1000.24
2019-04-27T07:39:56.864Z,1000.21
2019-04-27T07:40:58.604Z,1000.23
2019-04-27T07:41:58.596Z,1000.20
2019-04-27T07:42:56.718Z,1000.16
2019-04-27T07:43:58.535Z,1000.17
2019-04-27T07:44:56.619Z,1000.16
2019-04-27T07:45:56.590Z,1000.15
2019-04-27T07:46:56.521Z,1000.11
2019-04-27T07:47:56.476Z,1000.12
2019-04-27T07:48:56.454Z,1000.08
2019-04-27T07:49:56.373Z,1000.06
2019-04-27T07:50:56.331Z,1000.02
2019-04-27T07:51:56.279Z,1000.04
2019-04-27T07:52:56.225Z,1000.02
2019-04-27T07:53:56.205Z,1000.04
2019-04-27T07:54:56.130Z,999.99
2019-04-27T07:55:56.081Z,1000.01
2019-04-27T07:56:56.031Z,999.96
2019-04-27T07:57:55.986Z,999.98
2019-04-27T07:58:55.956Z,999.89
2019-04-27T07:59:55.883Z,999.95
2019-04-27T08:00:55.834Z,999.93
2019-04-27T08:01:55.798Z,999.94
2019-04-27T08:02:55.930Z,999.92
2019-04-27T08:03:55.712Z,999.95
2019-04-27T08:04:55.637Z,999.93
2019-04-27T08:05:55.590Z,999.91
2019-04-27T08:06:55.541Z,999.88
2019-04-27T08:07:55.501Z,999.89
2019-04-27T08:08:55.468Z,999.88
2019-04-27T08:09:55.396Z,999.83
2019-04-27T08:10:55.349Z,999.85
2019-04-27T08:11:55.293Z,999.84
2019-04-27T08:12:55.245Z,999.80
2019-04-27T08:13:55.217Z,999.85
2019-04-27T08:14:55.147Z,999.76
2019-04-27T08:15:55.099Z,999.81
2019-04-27T08:16:55.055Z,999.78
2019-04-27T08:17:55.001Z,999.81
2019-04-27T08:18:54.950Z,999.82
2019-04-27T08:19:54.926Z,999.81
2019-04-27T08:20:56.964Z,999.73
2019-04-27T08:21:54.803Z,999.77
2019-04-27T08:22:54.756Z,999.76
2019-04-27T08:23:54.706Z,999.75
2019-04-27T08:24:54.680Z,999.78
2019-04-27T08:25:54.609Z,999.76
2019-04-27T08:26:54.564Z,999.75
2019-04-27T08:27:54.510Z,999.75
2019-04-27T08:28:54.462Z,999.69
2019-04-27T08:29:54.436Z,999.76
2019-04-27T08:30:54.364Z,999.72
2019-04-27T08:31:54.312Z,999.69
2019-04-27T08:32:54.265Z,999.69
2019-04-27T08:33:54.218Z,999.73
2019-04-27T08:34:54.191Z,999.70
2019-04-27T08:35:54.119Z,999.72
2019-04-27T08:36:54.073Z,999.74
2019-04-27T08:37:54.020Z,999.73
2019-04-27T08:38:53.973Z,999.72
2019-04-27T08:39:53.945Z,999.71
2019-04-27T08:40:53.879Z,999.69
2019-04-27T08:41:53.828Z,999.71
2019-04-27T08:42:55.668Z,999.75
2019-04-27T08:43:53.728Z,999.73
2019-04-27T08:44:53.707Z,999.73
2019-04-27T08:45:53.636Z,999.71
2019-04-27T08:46:53.592Z,999.69
2019-04-27T08:47:53.536Z,999.68
2019-04-27T08:48:53.488Z,999.68
2019-04-27T08:49:53.465Z,999.69
2019-04-27T08:50:53.397Z,999.72
2019-04-27T08:51:59.180Z,999.68
2019-04-27T08:52:53.294Z,999.64
2019-04-27T08:53:53.243Z,999.71
2019-04-27T08:54:53.223Z,999.63
2019-04-27T08:55:53.148Z,999.65
2019-04-27T08:56:53.101Z,999.67
2019-04-27T08:57:53.074Z,999.67
2019-04-27T08:58:53.010Z,999.65
2019-04-27T08:59:52.986Z,999.66
2019-04-27T09:00:52.907Z,999.68
2019-04-27T09:01:52.860Z,999.73
2019-04-27T09:02:52.822Z,999.66
2019-04-27T09:03:52.769Z,999.70
2019-04-27T09:04:52.738Z,999.71
2019-04-27T09:05:52.666Z,999.73
2019-04-27T09:06:52.621Z,999.66
2019-04-27T09:07:52.572Z,999.72
2019-04-27T09:08:52.542Z,999.70
2019-04-27T09:09:52.498Z,999.67
2019-04-27T09:10:52.421Z,999.72
2019-04-27T09:11:52.374Z,999.70
2019-04-27T09:12:53.615Z,999.76
2019-04-27T09:13:52.279Z,999.78
2019-04-27T09:14:52.256Z,999.71
2019-04-27T09:15:52.182Z,999.73
2019-04-27T09:17:00.179Z,999.70
2019-04-27T09:17:52.082Z,999.70
2019-04-27T09:18:52.030Z,999.64
2019-04-27T09:19:52.012Z,999.70
2019-04-27T09:20:51.938Z,999.68
2019-04-27T09:21:51.888Z,999.66
2019-04-27T09:22:51.839Z,999.70
2019-04-27T09:23:51.786Z,999.64
2019-04-27T09:24:51.766Z,999.61
2019-04-27T09:25:51.693Z,999.62
2019-04-27T09:26:51.640Z,999.63
2019-04-27T09:27:51.591Z,999.66
2019-04-27T09:28:51.541Z,999.62
2019-04-27T09:29:51.517Z,999.66
2019-04-27T09:30:51.449Z,999.65
2019-04-27T09:31:51.395Z,999.69
2019-04-27T09:32:51.347Z,999.70
2019-04-27T09:33:51.300Z,999.69
2019-04-27T09:34:51.267Z,999.70
2019-04-27T09:35:51.193Z,999.72
2019-04-27T09:36:51.145Z,999.79
2019-04-27T09:37:51.093Z,999.80
2019-04-27T09:38:51.044Z,999.77
2019-04-27T09:39:51.024Z,999.83
2019-04-27T09:40:50.959Z,999.84
2019-04-27T09:41:50.900Z,999.86
2019-04-27T09:42:50.850Z,999.86
2019-04-27T09:43:50.797Z,999.85
2019-04-27T09:44:50.776Z,999.84
2019-04-27T09:45:50.699Z,999.87
2019-04-27T09:46:50.650Z,999.82
2019-04-27T09:47:50.605Z,999.80
2019-04-27T09:48:50.550Z,999.80
2019-04-27T09:49:50.526Z,999.86
2019-04-27T09:50:50.446Z,999.83
2019-04-27T09:51:50.400Z,999.83
2019-04-27T09:52:50.347Z,999.86
2019-04-27T09:53:50.306Z,999.84
2019-04-27T09:54:50.269Z,999.86
2019-04-27T09:55:50.193Z,999.89
2019-04-27T09:56:50.146Z,999.82
2019-04-27T09:57:50.095Z,999.81
2019-04-27T09:58:50.043Z,999.83
2019-04-27T09:59:50.015Z,999.80
2019-04-27T10:00:49.966Z,999.78
2019-04-27T10:01:49.893Z,999.82
2019-04-27T10:02:49.838Z,999.79
2019-04-27T10:03:49.790Z,999.79
2019-04-27T10:04:49.742Z,999.77
2019-04-27T10:05:49.716Z,999.74
2019-04-27T10:06:49.640Z,999.77
2019-04-27T10:07:49.588Z,999.76
2019-04-27T10:08:49.541Z,999.78
2019-04-27T10:09:49.490Z,999.81
2019-04-27T10:10:49.462Z,999.75
2019-04-27T10:11:49.387Z,999.75
2019-04-27T10:12:49.339Z,999.78
2019-04-27T10:13:49.288Z,999.76
2019-04-27T10:14:49.237Z,999.79
2019-04-27T10:15:49.219Z,999.77
2019-04-27T10:16:49.138Z,999.74
2019-04-27T10:17:49.089Z,999.77
2019-04-27T10:18:49.041Z,999.73
2019-04-27T10:19:48.989Z,999.73
2019-04-27T10:20:59.055Z,999.71
2019-04-27T10:21:48.888Z,999.74
2019-04-27T10:22:48.936Z,999.76
2019-04-27T10:23:48.786Z,999.74
2019-04-27T10:24:48.735Z,999.77
2019-04-27T10:25:48.711Z,999.70
2019-04-27T10:26:48.639Z,999.72
2019-04-27T10:27:48.585Z,999.73
2019-04-27T10:28:48.530Z,999.69
2019-04-27T10:29:48.483Z,999.69
2019-04-27T10:30:48.460Z,999.69
2019-04-27T10:31:48.448Z,999.65
2019-04-27T10:32:48.336Z,999.68
2019-04-27T10:33:48.285Z,999.69
2019-04-27T10:34:48.234Z,999.69
2019-04-27T10:35:48.206Z,999.69
2019-04-27T10:36:48.131Z,999.69
2019-04-27T10:37:48.089Z,999.67
2019-04-27T10:38:48.034Z,999.65
2019-04-27T10:39:47.983Z,999.64
2019-04-27T10:40:47.953Z,999.63
2019-04-27T10:41:47.888Z,999.63
2019-04-27T10:42:47.833Z,999.62
2019-04-27T10:43:47.783Z,999.61
2019-04-27T10:44:47.725Z,999.65
2019-04-27T10:45:47.706Z,999.59
2019-04-27T10:46:47.632Z,999.58
2019-04-27T10:47:49.487Z,999.59
2019-04-27T10:48:47.549Z,999.58
2019-04-27T10:49:48.460Z,999.57
2019-04-27T10:50:47.450Z,999.58
2019-04-27T10:51:47.372Z,999.56
2019-04-27T10:52:53.595Z,999.55
2019-04-27T10:53:47.296Z,999.53
2019-04-27T10:54:47.231Z,999.52
2019-04-27T10:55:47.200Z,999.54
2019-04-27T10:56:47.127Z,999.53
2019-04-27T10:57:47.081Z,999.49
2019-04-27T10:58:47.027Z,999.52
2019-04-27T10:59:46.973Z,999.53
2019-04-27T11:00:46.970Z,999.50
2019-04-27T11:01:46.875Z,999.53
2019-04-27T11:02:46.825Z,999.53
2019-04-27T11:03:46.771Z,999.55
2019-04-27T11:04:46.725Z,999.50
2019-04-27T11:05:46.672Z,999.56
2019-04-27T11:06:46.649Z,999.56
2019-04-27T11:07:46.576Z,999.51
2019-04-27T11:08:48.201Z,999.49
2019-04-27T11:09:46.472Z,999.45
2019-04-27T11:10:46.423Z,999.47
2019-04-27T11:11:46.475Z,999.49
2019-04-27T11:12:46.321Z,999.49
2019-04-27T11:13:46.418Z,999.45
2019-04-27T11:14:46.229Z,999.52
2019-04-27T11:15:46.268Z,999.46
2019-04-27T11:16:46.149Z,999.51
2019-04-27T11:17:47.600Z,999.48
2019-04-27T11:18:47.116Z,999.47
2019-04-27T11:19:46.111Z,999.47
2019-04-27T11:20:46.729Z,999.44
2019-04-27T11:21:45.891Z,999.43
2019-04-27T11:22:46.512Z,999.46
2019-04-27T11:23:46.003Z,999.45
2019-04-27T11:24:45.827Z,999.41
2019-04-27T11:25:46.860Z,999.41
2019-04-27T11:26:46.584Z,999.42
2019-04-27T11:27:45.568Z,999.43
2019-04-27T11:28:46.307Z,999.38
2019-04-27T11:29:46.198Z,999.40
2019-04-27T11:30:45.417Z,999.39
2019-04-27T11:31:46.584Z,999.38
2019-04-27T11:32:45.314Z,999.32
2019-04-27T11:33:46.472Z,999.35
2019-04-27T11:34:45.892Z,999.34
2019-04-27T11:35:46.951Z,999.30
2019-04-27T11:36:45.597Z,999.27
2019-04-27T11:37:45.623Z,999.28
2019-04-27T11:38:46.515Z,999.34
2019-04-27T11:39:46.058Z,999.31
2019-04-27T11:40:46.532Z,999.33
2019-04-27T11:41:44.881Z,999.33
2019-04-27T11:42:44.804Z,999.27
2019-04-27T11:43:46.311Z,999.27
2019-04-27T11:44:44.705Z,999.30
2019-04-27T11:45:45.779Z,999.25
2019-04-27T11:46:45.489Z,999.28
2019-04-27T11:47:44.557Z,999.23
2019-04-27T11:48:44.506Z,999.23
2019-04-27T11:49:45.703Z,999.22
2019-04-27T11:50:45.887Z,999.16
2019-04-27T11:51:44.381Z,999.16
2019-04-27T11:52:45.647Z,999.16
2019-04-27T11:53:44.252Z,999.16
2019-04-27T11:54:45.726Z,999.20
2019-04-27T11:55:44.150Z,999.13
2019-04-27T11:56:44.122Z,999.15
2019-04-27T11:57:44.053Z,999.21
2019-04-27T11:58:43.998Z,999.18
2019-04-27T11:59:43.947Z,999.20
2019-04-27T12:00:43.895Z,999.22
2019-04-27T12:01:43.864Z,999.22
2019-04-27T12:02:45.633Z,999.24
2019-04-27T12:03:43.741Z,999.21
2019-04-27T12:04:43.709Z,999.21
2019-04-27T12:05:43.642Z,999.22
2019-04-27T12:06:43.615Z,999.21
2019-04-27T12:07:43.535Z,999.22
2019-04-27T12:08:43.489Z,999.23
2019-04-27T12:09:43.437Z,999.23
2019-04-27T12:10:43.390Z,999.19
2019-04-27T12:11:43.358Z,999.17
2019-04-27T12:12:43.282Z,999.19